createdAt,value
2022-08-29T00:03:00.404Z,3.42
2022-08-29T00:06:07.849Z,3.05
2022-08-29T00:09:15.729Z,3.55
2022-08-29T00:12:22.270Z,3.45
2022-08-29T00:15:44.520Z,3.22
2022-08-29T00:18:51.573Z,3.30
2022-08-29T00:21:56.949Z,3.05
2022-08-29T00:25:05.853Z,3.85
2022-08-29T00:28:11.573Z,2.90
2022-08-29T00:31:17.220Z,3.00
2022-08-29T00:34:23.145Z,3.40
2022-08-29T00:37:28.944Z,3.00
2022-08-29T00:40:40.510Z,3.28
2022-08-29T00:43:46.343Z,3.42
2022-08-29T00:46:55.651Z,3.15
2022-08-29T00:50:01.425Z,3.15
2022-08-29T00:53:09.381Z,3.22
2022-08-29T00:56:19.972Z,3.10
2022-08-29T00:59:29.731Z,3.60
2022-08-29T01:02:40.256Z,3.35
2022-08-29T01:05:46.367Z,3.10
2022-08-29T01:08:57.263Z,3.90
2022-08-29T01:12:19.551Z,3.65
2022-08-29T01:15:25.520Z,3.33
2022-08-29T01:18:33.496Z,3.58
2022-08-29T01:21:47.520Z,3.50
2022-08-29T01:24:56.608Z,3.47
2022-08-29T01:28:08.972Z,3.20
2022-08-29T01:34:42.236Z,3.20
2022-08-29T01:37:48.233Z,3.25
2022-08-29T01:40:57.327Z,3.00
2022-08-29T01:44:02.788Z,3.45
2022-08-29T01:47:11.528Z,3.70
2022-08-29T01:50:18.905Z,3.17
2022-08-29T01:53:24.536Z,3.25
2022-08-29T01:56:34.806Z,3.22
2022-08-29T01:59:40.656Z,3.58
2022-08-29T02:02:46.044Z,2.90
2022-08-29T02:05:51.697Z,2.83
2022-08-29T02:08:57.748Z,3.05
2022-08-29T02:12:07.386Z,3.65
2022-08-29T02:15:13.926Z,3.25
2022-08-29T02:18:19.919Z,3.42
2022-08-29T02:21:27.511Z,3.17
2022-08-29T02:24:33.637Z,3.20
2022-08-29T02:27:42.660Z,3.35
2022-08-29T02:30:55.817Z,3.65
2022-08-29T02:34:02.144Z,3.47
2022-08-29T02:37:09.254Z,2.95
2022-08-29T02:40:14.832Z,3.08
2022-08-29T02:43:23.844Z,2.92
2022-08-29T02:46:29.615Z,3.10
2022-08-29T02:49:35.286Z,3.20
2022-08-29T02:52:41.953Z,3.60
2022-08-29T02:55:48.937Z,3.13
2022-08-29T02:58:56.897Z,3.30
2022-08-29T03:02:02.563Z,4.00
2022-08-29T03:05:09.514Z,3.17
2022-08-29T03:08:16.759Z,3.15
2022-08-29T03:11:22.825Z,3.35
2022-08-29T03:14:31.195Z,3.25
2022-08-29T03:17:37.361Z,3.33
2022-08-29T03:20:43.430Z,3.20
2022-08-29T03:23:48.757Z,3.03
2022-08-29T03:26:56.698Z,3.53
2022-08-29T03:30:04.999Z,3.13
2022-08-29T03:33:11.971Z,3.17
2022-08-29T03:36:17.596Z,3.00
2022-08-29T03:39:24.031Z,3.47
2022-08-29T03:42:30.127Z,2.67
2022-08-29T03:45:38.573Z,3.13
2022-08-29T03:48:43.860Z,2.90
2022-08-29T03:51:50.197Z,3.08
2022-08-29T03:54:56.060Z,3.00
2022-08-29T03:58:02.723Z,2.97
2022-08-29T04:01:10.797Z,2.90
2022-08-29T04:04:36.572Z,3.08
2022-08-29T04:07:44.233Z,3.10
2022-08-29T04:10:50.185Z,3.38
2022-08-29T04:13:56.865Z,2.90
2022-08-29T04:17:05.137Z,3.75
2022-08-29T04:20:12.433Z,3.40
2022-08-29T04:23:18.647Z,3.35
2022-08-29T04:26:39.196Z,3.08
2022-08-29T04:29:48.445Z,3.38
2022-08-29T04:32:56.556Z,3.28
2022-08-29T04:36:02.177Z,3.30
2022-08-29T04:39:08.725Z,3.30
2022-08-29T04:42:18.226Z,3.50
2022-08-29T04:45:26.349Z,3.80
2022-08-29T04:48:34.563Z,3.58
2022-08-29T04:51:40.764Z,3.38
2022-08-29T04:54:46.389Z,3.97
2022-08-29T04:57:52.221Z,3.13
2022-08-29T05:00:57.997Z,3.97
2022-08-29T05:04:07.880Z,3.33
2022-08-29T05:07:16.872Z,3.22
2022-08-29T05:10:23.716Z,4.07
2022-08-29T05:13:29.704Z,3.75
2022-08-29T05:16:37.336Z,3.30
2022-08-29T05:19:45.612Z,3.97
2022-08-29T05:22:50.952Z,3.65
2022-08-29T05:25:59.568Z,3.42
2022-08-29T05:29:05.372Z,3.58
2022-08-29T05:32:16.101Z,3.45
2022-08-29T05:35:24.293Z,3.63
2022-08-29T05:38:29.924Z,3.92
2022-08-29T05:41:36.364Z,3.53
2022-08-29T05:44:44.348Z,3.80
2022-08-29T05:47:51.224Z,3.80
2022-08-29T05:50:59.952Z,4.00
2022-08-29T05:54:05.557Z,3.78
2022-08-29T05:57:18.207Z,3.47
2022-08-29T06:00:24.733Z,3.92
2022-08-29T06:03:30.573Z,3.22
2022-08-29T06:06:38.597Z,3.33
2022-08-29T06:09:45.945Z,3.70
2022-08-29T06:12:51.292Z,3.70
2022-08-29T06:15:57.535Z,3.42
2022-08-29T06:19:03.381Z,3.63
2022-08-29T06:22:13.329Z,3.13
2022-08-29T06:28:46.545Z,3.55
2022-08-29T06:31:51.930Z,3.55
2022-08-29T06:34:57.581Z,3.63
2022-08-29T06:38:05.508Z,3.88
2022-08-29T06:41:14.394Z,3.75
2022-08-29T06:44:21.498Z,4.00
2022-08-29T06:47:27.158Z,4.15
2022-08-29T06:50:32.516Z,4.00
2022-08-29T06:53:42.270Z,3.35
2022-08-29T06:56:48.581Z,4.13
2022-08-29T06:59:54.269Z,4.18
2022-08-29T07:02:59.762Z,3.63
2022-08-29T07:06:05.712Z,3.50
2022-08-29T07:09:14.193Z,3.45
2022-08-29T07:12:19.822Z,3.78
2022-08-29T07:15:26.437Z,4.32
2022-08-29T07:18:32.153Z,3.42
2022-08-29T07:21:37.717Z,2.90
2022-08-29T07:24:45.979Z,3.38
2022-08-29T07:27:53.505Z,3.45
2022-08-29T07:30:59.336Z,3.22
2022-08-29T07:34:05.296Z,3.67
2022-08-29T07:37:11.073Z,3.58
2022-08-29T07:40:20.072Z,3.28
2022-08-29T07:43:27.970Z,3.60
2022-08-29T07:46:33.562Z,3.20
2022-08-29T07:49:42.004Z,3.03
2022-08-29T07:52:47.929Z,3.28
2022-08-29T07:55:56.201Z,3.00
2022-08-29T07:59:02.332Z,2.95
2022-08-29T08:02:08.098Z,3.15
2022-08-29T08:05:13.672Z,2.85
2022-08-29T08:08:20.182Z,2.97
2022-08-29T08:11:30.526Z,2.67
2022-08-29T08:14:37.011Z,2.85
2022-08-29T08:17:44.181Z,2.80
2022-08-29T08:20:51.144Z,2.70
2022-08-29T08:23:57.065Z,2.88
2022-08-29T08:27:05.541Z,2.88
2022-08-29T08:30:12.509Z,3.30
2022-08-29T08:33:18.173Z,3.15
2022-08-29T08:36:26.119Z,3.17
2022-08-29T08:39:32.760Z,3.15
2022-08-29T08:42:45.172Z,2.72
2022-08-29T08:45:50.877Z,2.97
2022-08-29T08:49:00.665Z,3.15
2022-08-29T08:52:15.817Z,2.53
2022-08-29T08:58:45.201Z,2.70
2022-08-29T09:02:06.597Z,2.60
2022-08-29T09:05:31.452Z,3.05
2022-08-29T09:08:48.240Z,2.38
2022-08-29T09:12:03.628Z,2.70
2022-08-29T09:15:16.106Z,2.60
2022-08-29T09:18:31.641Z,2.72
2022-08-29T09:21:49.635Z,3.03
2022-08-29T09:25:00.955Z,2.65
2022-08-29T09:28:09.029Z,2.70
2022-08-29T09:31:24.457Z,2.60
2022-08-29T09:38:07.638Z,2.63
2022-08-29T09:41:15.373Z,2.50
2022-08-29T09:44:25.401Z,3.05
2022-08-29T09:47:35.806Z,2.45
2022-08-29T09:50:41.489Z,2.63
2022-08-29T09:53:47.285Z,2.60
2022-08-29T09:56:58.571Z,2.53
2022-08-29T10:00:15.697Z,2.60
2022-08-29T10:03:26.332Z,2.92
2022-08-29T10:06:34.280Z,2.30
2022-08-29T10:09:40.012Z,2.58
2022-08-29T10:12:54.198Z,2.50
2022-08-29T10:16:07.299Z,2.40
2022-08-29T10:19:21.216Z,2.40
2022-08-29T10:22:38.929Z,2.50
2022-08-29T10:25:44.881Z,2.17
2022-08-29T10:28:55.409Z,2.00
2022-08-29T10:32:10.138Z,2.13
2022-08-29T10:35:27.809Z,2.17
2022-08-29T10:38:48.403Z,2.42
2022-08-29T10:42:01.016Z,2.40
2022-08-29T10:45:18.491Z,1.98
2022-08-29T10:48:32.097Z,2.40
2022-08-29T10:51:49.916Z,2.25
2022-08-29T10:55:03.421Z,2.08
2022-08-29T10:58:16.996Z,2.38
2022-08-29T11:01:26.211Z,2.20
2022-08-29T11:04:37.511Z,2.38
2022-08-29T11:07:51.177Z,2.40
2022-08-29T11:10:56.550Z,2.10
2022-08-29T11:14:06.140Z,2.33
2022-08-29T11:17:16.004Z,2.13
2022-08-29T11:20:26.580Z,2.10
2022-08-29T11:23:41.429Z,2.63
2022-08-29T11:26:58.157Z,3.08
2022-08-29T11:30:08.030Z,2.83
2022-08-29T11:33:27.989Z,3.28
2022-08-29T11:36:50.972Z,2.50
2022-08-29T11:40:10.377Z,3.13
2022-08-29T11:43:21.461Z,2.88
2022-08-29T11:46:39.516Z,2.70
2022-08-29T11:49:48.561Z,2.67
2022-08-29T11:52:58.453Z,2.10
2022-08-29T11:56:33.560Z,2.78
2022-08-29T12:00:01.337Z,2.53
2022-08-29T12:03:15.139Z,1.85
2022-08-29T12:06:57.538Z,2.05
2022-08-29T12:10:10.721Z,2.20
2022-08-29T12:15:48.171Z,1.40
2022-08-29T12:18:58.145Z,1.55
2022-08-29T12:22:03.616Z,1.40
2022-08-29T12:25:32.715Z,1.65
2022-08-29T12:28:52.060Z,1.70
2022-08-29T12:32:32.157Z,1.63
2022-08-29T12:36:05.747Z,1.52
2022-08-29T12:39:35.754Z,1.27
2022-08-29T12:42:51.567Z,1.40
2022-08-29T12:45:58.744Z,1.35
2022-08-29T12:49:11.529Z,1.25
2022-08-29T12:52:27.942Z,1.50
2022-08-29T12:55:40.004Z,1.35
2022-08-29T12:58:48.182Z,1.52
2022-08-29T13:01:56.401Z,1.20
2022-08-29T13:05:02.686Z,1.00
2022-08-29T13:08:13.645Z,1.50
2022-08-29T13:11:23.530Z,1.10
2022-08-29T13:14:28.865Z,1.70
2022-08-29T13:17:36.411Z,1.33
2022-08-29T13:20:48.722Z,1.10
2022-08-29T13:24:05.932Z,1.20
2022-08-29T13:27:11.511Z,1.27
2022-08-29T13:30:25.453Z,1.10
2022-08-29T13:33:35.472Z,1.20
2022-08-29T13:36:46.947Z,1.20
2022-08-29T13:39:55.096Z,1.20
2022-08-29T13:43:02.337Z,1.30
2022-08-29T13:46:18.348Z,1.00
2022-08-29T13:49:25.690Z,1.27
2022-08-29T13:52:32.333Z,1.17
2022-08-29T13:55:43.280Z,1.20
2022-08-29T13:58:48.577Z,1.25
2022-08-29T14:02:11.217Z,1.20
2022-08-29T14:05:17.475Z,1.30
2022-08-29T14:08:23.144Z,1.20
2022-08-29T14:11:31.273Z,1.17
2022-08-29T14:14:37.220Z,1.02
2022-08-29T14:17:43.791Z,0.90
2022-08-29T14:20:49.449Z,1.08
2022-08-29T14:23:54.752Z,1.00
2022-08-29T14:27:05.009Z,1.42
2022-08-29T14:30:13.763Z,0.90
2022-08-29T14:33:20.087Z,1.30
2022-08-29T14:38:02.986Z,0.90
2022-08-29T14:41:08.692Z,1.30
